createdAt,value
2022-11-16T00:03:33.619Z,93.32
2022-11-16T00:08:41.486Z,93.25
2022-11-16T00:13:45.636Z,93.47
2022-11-16T00:18:48.725Z,93.44
2022-11-16T00:23:51.964Z,93.49
2022-11-16T00:28:56.315Z,93.45
2022-11-16T00:33:59.459Z,93.46
2022-11-16T00:39:03.524Z,93.42
2022-11-16T00:44:07.042Z,93.36
2022-11-16T00:49:10.584Z,93.27
2022-11-16T00:54:13.764Z,93.21
2022-11-16T00:59:16.924Z,93.24
2022-11-16T01:04:20.059Z,93.24
2022-11-16T01:09:23.169Z,93.19
2022-11-16T01:14:26.252Z,93.17
2022-11-16T01:19:30.253Z,93.11
2022-11-16T01:24:33.754Z,92.99
2022-11-16T01:29:36.948Z,92.91
2022-11-16T01:34:40.072Z,92.88
2022-11-16T01:39:43.629Z,92.85
2022-11-16T01:44:46.744Z,92.79
2022-11-16T01:49:58.493Z,92.68
2022-11-16T01:55:02.743Z,92.61
2022-11-16T02:00:10.681Z,92.47
2022-11-16T02:05:20.592Z,92.36
2022-11-16T02:10:48.353Z,92.25
2022-11-16T02:16:14.771Z,92.14
2022-11-16T02:21:36.969Z,92.06
2022-11-16T02:27:07.965Z,91.96
2022-11-16T02:32:32.007Z,91.67
2022-11-16T02:37:42.835Z,90.56
2022-11-16T02:42:55.473Z,89.88
2022-11-16T02:48:10.604Z,89.58
2022-11-16T02:53:14.578Z,89.57
2022-11-16T02:58:24.842Z,88.26
2022-11-16T03:03:51.340Z,87.83
2022-11-16T03:09:05.521Z,87.89
2022-11-16T03:14:16.637Z,87.64
2022-11-16T03:19:33.533Z,87.53
2022-11-16T03:24:37.939Z,87.28
2022-11-16T03:30:06.196Z,87.12
2022-11-16T03:35:24.390Z,87.24
2022-11-16T03:40:33.252Z,87.25
2022-11-16T03:45:38.066Z,86.55
2022-11-16T03:50:42.997Z,86.15
2022-11-16T03:55:49.806Z,85.82
2022-11-16T04:00:54.084Z,85.40
2022-11-16T04:06:15.948Z,84.68
2022-11-16T04:11:41.403Z,83.90
2022-11-16T04:17:03.233Z,83.81
2022-11-16T04:23:16.017Z,84.30
2022-11-16T04:28:29.001Z,85.29
2022-11-16T04:33:51.475Z,85.92
2022-11-16T04:38:54.343Z,86.14
2022-11-16T04:43:58.132Z,85.71
2022-11-16T04:49:00.957Z,85.96
2022-11-16T04:54:03.883Z,85.40
2022-11-16T04:59:06.797Z,85.04
2022-11-16T05:04:09.909Z,84.56
2022-11-16T05:09:12.816Z,84.36
2022-11-16T05:14:15.729Z,84.22
2022-11-16T05:19:37.332Z,84.29
2022-11-16T05:24:40.332Z,85.16
2022-11-16T05:29:44.508Z,86.11
2022-11-16T05:34:48.134Z,86.46
2022-11-16T05:39:50.964Z,86.85
2022-11-16T05:44:53.848Z,87.15
2022-11-16T05:49:56.724Z,87.47
2022-11-16T05:54:59.677Z,87.68
2022-11-16T06:00:03.425Z,87.73
2022-11-16T06:05:07.696Z,87.75
2022-11-16T06:10:12.725Z,87.58
2022-11-16T06:15:15.794Z,87.51
2022-11-16T06:20:18.891Z,87.51
2022-11-16T06:25:21.910Z,87.33
2022-11-16T06:30:26.084Z,87.11
2022-11-16T06:35:31.034Z,87.21
2022-11-16T06:40:35.397Z,87.36
2022-11-16T06:45:38.961Z,87.41
2022-11-16T06:50:41.834Z,87.36
2022-11-16T06:55:45.041Z,87.53
2022-11-16T07:00:48.348Z,87.77
2022-11-16T07:05:51.640Z,87.78
2022-11-16T07:10:54.598Z,87.60
2022-11-16T07:16:05.535Z,87.50
2022-11-16T07:21:15.222Z,87.36
2022-11-16T07:26:18.634Z,87.00
2022-11-16T07:31:22.133Z,86.85
2022-11-16T07:36:25.930Z,86.83
2022-11-16T07:41:30.517Z,86.56
2022-11-16T07:46:49.151Z,86.44
2022-11-16T07:51:52.111Z,86.13
2022-11-16T07:56:55.003Z,85.85
2022-11-16T08:01:59.350Z,85.74
2022-11-16T08:07:02.559Z,85.25
2022-11-16T08:12:05.645Z,84.47
2022-11-16T08:17:08.566Z,84.07
2022-11-16T08:22:11.422Z,84.21
2022-11-16T08:27:17.067Z,83.77
2022-11-16T08:32:20.061Z,83.68
2022-11-16T08:37:23.385Z,83.79
2022-11-16T08:42:26.309Z,83.69
2022-11-16T08:47:29.337Z,83.96
2022-11-16T08:52:32.343Z,83.70
2022-11-16T08:57:35.374Z,83.06
2022-11-16T09:02:39.211Z,82.99
2022-11-16T09:07:45.142Z,83.14
2022-11-16T09:12:48.118Z,83.04
2022-11-16T09:17:55.001Z,83.18
2022-11-16T09:22:58.100Z,83.07
2022-11-16T09:28:01.472Z,83.33
2022-11-16T09:33:04.979Z,83.07
2022-11-16T09:38:10.101Z,83.08
2022-11-16T09:43:54.102Z,83.04
2022-11-16T09:49:01.596Z,82.42
2022-11-16T09:54:11.692Z,82.33
2022-11-16T09:59:25.797Z,82.47
2022-11-16T10:05:17.871Z,82.59
2022-11-16T10:10:38.526Z,82.45
2022-11-16T10:16:12.438Z,81.98
2022-11-16T10:22:06.596Z,81.76
2022-11-16T10:27:22.331Z,81.82
2022-11-16T10:32:32.433Z,81.46
2022-11-16T10:37:44.429Z,81.46
2022-11-16T10:43:00.501Z,81.07
2022-11-16T10:48:17.899Z,81.00
2022-11-16T10:53:33.602Z,80.83
2022-11-16T10:59:15.980Z,80.77
2022-11-16T11:04:26.383Z,80.68
2022-11-16T11:09:36.618Z,80.89
2022-11-16T11:14:39.676Z,80.99
2022-11-16T11:19:42.833Z,80.93
2022-11-16T11:24:49.410Z,81.11
2022-11-16T11:29:55.977Z,81.09
2022-11-16T11:35:01.555Z,80.90
2022-11-16T11:40:30.062Z,81.11
2022-11-16T11:46:08.394Z,80.91
2022-11-16T11:51:36.218Z,81.10
2022-11-16T11:56:39.276Z,81.36
2022-11-16T12:01:58.464Z,81.70
2022-11-16T12:07:29.882Z,82.09
2022-11-16T12:12:49.859Z,82.11
2022-11-16T12:18:27.113Z,82.01
2022-11-16T12:24:23.262Z,81.71
2022-11-16T12:29:37.371Z,81.45
2022-11-16T12:35:09.587Z,81.47
2022-11-16T12:40:37.710Z,81.28
2022-11-16T12:45:59.026Z,81.22
2022-11-16T12:51:30.513Z,80.82
2022-11-16T12:56:57.610Z,80.80
2022-11-16T13:02:18.068Z,80.64
2022-11-16T13:07:44.164Z,80.76
2022-11-16T13:13:03.934Z,80.89
2022-11-16T13:18:21.562Z,80.65
2022-11-16T13:24:01.710Z,80.32
2022-11-16T13:29:35.819Z,79.74
2022-11-16T13:34:42.081Z,79.89
2022-11-16T13:40:12.298Z,79.95
2022-11-16T13:45:22.252Z,80.21
2022-11-16T13:50:37.782Z,80.39
2022-11-16T13:55:46.631Z,80.57
2022-11-16T14:01:10.953Z,80.50
2022-11-16T14:06:19.791Z,80.04
2022-11-16T14:11:29.004Z,79.99
2022-11-16T14:16:50.985Z,79.52
2022-11-16T14:22:20.999Z,79.54
2022-11-16T14:27:45.318Z,79.07
2022-11-16T14:32:52.847Z,78.99
2022-11-16T14:38:07.272Z,79.08
2022-11-16T14:43:21.407Z,78.64
2022-11-16T14:48:27.048Z,78.24
2022-11-16T14:53:33.607Z,77.83
2022-11-16T14:58:37.527Z,78.19
2022-11-16T15:03:54.557Z,78.38
2022-11-16T15:09:04.599Z,78.89
2022-11-16T15:14:07.564Z,79.29
2022-11-16T15:19:12.419Z,79.49
2022-11-16T15:24:34.987Z,79.51
2022-11-16T15:29:38.292Z,79.60
2022-11-16T15:34:41.234Z,79.42
2022-11-16T15:39:44.412Z,79.38
2022-11-16T15:44:47.660Z,79.18
2022-11-16T15:49:53.156Z,79.11
2022-11-16T15:55:05.078Z,79.20
2022-11-16T16:00:23.042Z,79.15
2022-11-16T16:05:41.017Z,78.63
2022-11-16T16:10:43.945Z,78.21
2022-11-16T16:15:47.030Z,77.85
2022-11-16T16:20:50.258Z,77.85
2022-11-16T16:25:53.447Z,77.71
2022-11-16T16:30:56.598Z,77.67
2022-11-16T16:36:00.057Z,77.75
2022-11-16T16:41:06.110Z,77.96
2022-11-16T16:46:12.413Z,78.00
2022-11-16T16:51:15.435Z,78.11
2022-11-16T16:56:20.008Z,78.33
2022-11-16T17:01:23.432Z,78.50
2022-11-16T17:06:26.366Z,78.67
2022-11-16T17:11:29.513Z,78.77
2022-11-16T17:16:32.950Z,78.79
2022-11-16T17:21:35.921Z,79.10
2022-11-16T17:26:38.882Z,79.24
2022-11-16T17:31:45.045Z,79.07
2022-11-16T17:36:48.291Z,79.06
2022-11-16T17:41:52.166Z,79.13
2022-11-16T17:46:55.060Z,79.12
2022-11-16T17:51:57.954Z,79.28
2022-11-16T17:57:00.964Z,79.35
2022-11-16T18:02:03.945Z,79.42
2022-11-16T18:07:07.218Z,79.44
2022-11-16T18:12:10.354Z,79.28
2022-11-16T18:17:13.372Z,79.08
2022-11-16T18:22:16.406Z,79.03
2022-11-16T18:27:19.330Z,78.89
2022-11-16T18:32:22.383Z,78.63
2022-11-16T18:37:25.265Z,78.68
2022-11-16T18:42:28.290Z,78.57
2022-11-16T18:47:31.385Z,78.53
2022-11-16T18:52:34.559Z,78.38
2022-11-16T18:57:38.857Z,78.11
2022-11-16T19:02:42.823Z,78.02
2022-11-16T19:07:46.376Z,77.83
2022-11-16T19:12:50.052Z,77.77
2022-11-16T19:18:19.508Z,77.50
2022-11-16T19:23:16.257Z,77.53
2022-11-16T19:28:19.269Z,77.47
2022-11-16T19:33:22.262Z,77.35
2022-11-16T19:38:29.519Z,77.43
2022-11-16T19:43:34.124Z,77.46
2022-11-16T19:48:38.059Z,77.29
2022-11-16T19:53:42.098Z,77.28
2022-11-16T19:58:45.601Z,77.25
2022-11-16T20:03:53.260Z,77.13
2022-11-16T20:09:01.132Z,77.28
2022-11-16T20:14:08.587Z,77.14
2022-11-16T20:19:16.244Z,77.24
2022-11-16T20:24:19.702Z,77.31
2022-11-16T20:29:23.160Z,77.32
2022-11-16T20:34:26.527Z,77.26
2022-11-16T20:39:29.547Z,76.94
2022-11-16T20:44:32.756Z,76.89
2022-11-16T20:49:35.713Z,76.67
2022-11-16T20:54:39.275Z,76.68
2022-11-16T20:59:42.280Z,76.50
2022-11-16T21:04:46.457Z,76.40
2022-11-16T21:10:09.599Z,76.28
2022-11-16T21:15:12.701Z,76.32
2022-11-16T21:20:31.252Z,76.23
2022-11-16T21:25:34.195Z,76.11
2022-11-16T21:30:37.063Z,76.26
2022-11-16T21:35:40.188Z,76.17
2022-11-16T21:40:44.334Z,76.22
2022-11-16T21:45:49.355Z,76.02
2022-11-16T21:51:21.269Z,76.07
2022-11-16T21:56:26.289Z,76.19
2022-11-16T22:01:49.160Z,76.05
2022-11-16T22:07:10.945Z,76.17
2022-11-16T22:17:53.027Z,76.22
2022-11-16T22:22:56.264Z,76.07
2022-11-16T22:28:19.827Z,76.18
2022-11-16T22:33:22.735Z,76.16
2022-11-16T22:38:26.436Z,76.26
2022-11-16T22:43:31.587Z,76.24
2022-11-16T22:48:40.481Z,76.11
2022-11-16T22:53:47.229Z,76.28
2022-11-16T22:58:50.890Z,76.18
2022-11-16T23:03:54.103Z,76.07
2022-11-16T23:08:57.375Z,75.45
2022-11-16T23:14:19.738Z,75.62
2022-11-16T23:19:47.348Z,75.71
2022-11-16T23:25:09.441Z,75.86
2022-11-16T23:30:13.550Z,75.71
2022-11-16T23:35:17.965Z,75.40
2022-11-16T23:40:24.205Z,75.35
2022-11-16T23:45:27.398Z,75.14
2022-11-16T23:50:30.708Z,74.81
2022-11-16T23:55:36.486Z,74.99
